Time;durP1;ratioP1;P1;durP2;ratioP2;P2;SDS_P1;SDS_P2;PMS_P1;PMS_P2;Temp;Humidity;BMP_temperature;BMP_pressure;BME280_temperature;BME280_humidity;BME280_pressure;Samples;Min_cycle;Max_cycle;Signal;HPM_P1;HPM_P2
2023/07/25 00:02:21;;;;;;;0.77;0.20;;;;;;;13.82;100.00;100249.63;5015422;28;20041;-51
2023/07/25 00:04:46;;;;;;;1.50;0.30;;;;;;;13.89;100.00;100243.19;5018672;28;20091;-51
2023/07/25 00:07:12;;;;;;;0.30;0.08;;;;;;;13.96;100.00;100245.78;5022816;28;20441;-51
2023/07/25 00:09:37;;;;;;;8.95;0.68;;;;;;;13.97;100.00;100247.44;5017586;28;20402;-51
2023/07/25 00:12:03;;;;;;;2.55;0.40;;;;;;;13.96;100.00;100240.44;5016675;28;20032;-51
2023/07/25 00:14:28;;;;;;;0.90;0.35;;;;;;;13.92;100.00;100244.59;5023562;28;20041;-52
2023/07/25 00:16:53;;;;;;;0.40;0.35;;;;;;;13.92;100.00;100240.09;5015055;28;20037;-53
2023/07/25 00:19:19;;;;;;;3.75;1.10;;;;;;;13.96;100.00;100235.13;5023301;28;20033;-53
2023/07/25 00:21:44;;;;;;;2.50;0.47;;;;;;;13.95;100.00;100246.84;5015305;28;20041;-51
2023/07/25 00:24:09;;;;;;;2.08;0.50;;;;;;;14.00;100.00;100240.84;5022549;28;20037;-51
2023/07/25 00:26:34;;;;;;;1.02;0.20;;;;;;;13.99;100.00;100239.19;5023345;28;20041;-54
2023/07/25 00:29:00;;;;;;;0.30;0.20;;;;;;;13.94;100.00;100237.22;5021058;28;20072;-56
2023/07/25 00:31:25;;;;;;;0.32;0.03;;;;;;;13.91;100.00;100241.13;5018708;28;20558;-52
2023/07/25 00:33:51;;;;;;;5.28;0.30;;;;;;;13.98;100.00;100241.06;5013400;28;20076;-54
2023/07/25 00:36:16;;;;;;;0.10;0.10;;;;;;;14.01;100.00;100239.81;5021426;28;20486;-54
2023/07/25 00:38:42;;;;;;;1.27;0.90;;;;;;;13.97;100.00;100234.09;5013672;28;20609;-52
2023/07/25 00:41:07;;;;;;;2.92;0.32;;;;;;;13.93;100.00;100232.91;5022603;28;20030;-52
2023/07/25 00:43:32;;;;;;;1.02;0.40;;;;;;;13.95;100.00;100230.84;5018625;28;20525;-53
2023/07/25 00:45:57;;;;;;;1.08;0.40;;;;;;;13.98;100.00;100235.72;5022322;28;20033;-50
2023/07/25 00:48:23;;;;;;;0.80;0.17;;;;;;;14.01;100.00;100227.28;5012556;28;20029;-50
2023/07/25 00:50:49;;;;;;;2.60;0.10;;;;;;;14.01;100.00;100226.47;5021947;28;20494;-51
2023/07/25 00:53:15;;;;;;;0.35;0.15;;;;;;;14.08;100.00;100230.72;5022371;28;20513;-54
2023/07/25 00:55:41;;;;;;;0.35;0.30;;;;;;;14.15;100.00;100230.66;5020603;28;20042;-49
2023/07/25 00:58:06;;;;;;;0.28;0.00;;;;;;;14.21;100.00;100231.63;5022692;28;20067;-51
2023/07/25 01:00:31;;;;;;;1.80;0.30;;;;;;;14.15;100.00;100233.31;5021246;28;20420;-52
2023/07/25 01:02:57;;;;;;;5.47;1.92;;;;;;;14.05;100.00;100239.16;5015238;28;20044;-52
2023/07/25 01:05:23;;;;;;;3.10;0.20;;;;;;;14.06;100.00;100240.78;5022637;28;20029;-52
2023/07/25 01:07:48;;;;;;;0.60;0.35;;;;;;;14.02;100.00;100249.41;5019395;28;20474;-49
2023/07/25 01:10:14;;;;;;;0.63;0.17;;;;;;;14.00;100.00;100247.00;5021287;28;20064;-53
2023/07/25 01:12:40;;;;;;;0.90;0.50;;;;;;;14.05;100.00;100241.81;5014786;28;20126;-51
2023/07/25 01:18:27;;;;;;;4.28;0.13;;;;;;;14.22;100.00;100238.56;5019402;28;20122;-53
2023/07/25 01:20:53;;;;;;;0.68;0.20;;;;;;;14.17;100.00;100234.75;5020048;28;20030;-54
2023/07/25 01:23:19;;;;;;;0.68;0.20;;;;;;;14.22;100.00;100228.72;5020416;28;20025;-51
2023/07/25 01:25:46;;;;;;;0.28;0.20;;;;;;;14.25;100.00;100232.78;5012090;28;20475;-53
2023/07/25 01:28:11;;;;;;;0.40;0.40;;;;;;;14.31;100.00;100232.75;5018237;28;20041;-51
2023/07/25 01:30:37;;;;;;;4.85;0.98;;;;;;;14.28;100.00;100235.03;5014493;28;20501;-52
2023/07/25 01:33:02;;;;;;;2.53;0.32;;;;;;;14.22;100.00;100233.25;5019147;28;20299;-50
2023/07/25 01:35:27;;;;;;;2.45;0.75;;;;;;;14.20;100.00;100228.16;5023077;28;20146;-53
2023/07/25 01:37:53;;;;;;;2.08;0.32;;;;;;;14.20;100.00;100230.81;5014022;28;20125;-53
2023/07/25 01:40:18;;;;;;;0.95;0.10;;;;;;;14.23;100.00;100229.56;5019054;28;20448;-55
2023/07/25 01:42:43;;;;;;;0.40;0.40;;;;;;;14.22;100.00;100223.38;5016583;28;20760;-53
2023/07/25 01:45:09;;;;;;;8.07;0.73;;;;;;;14.20;100.00;100225.47;5020882;28;20033;-55
2023/07/25 01:47:34;;;;;;;2.58;0.40;;;;;;;14.22;100.00;100225.25;5015322;28;20096;-50
2023/07/25 01:50:00;;;;;;;2.88;1.75;;;;;;;14.22;100.00;100230.56;5020459;28;20033;-51
2023/07/25 01:52:25;;;;;;;0.28;0.20;;;;;;;14.21;100.00;100229.75;5022410;28;20427;-52
2023/07/25 01:54:52;;;;;;;4.40;1.40;;;;;;;14.21;100.00;100232.44;5022713;28;20036;-52
2023/07/25 01:57:17;;;;;;;5.95;1.20;;;;;;;14.21;100.00;100232.44;5030730;28;20104;-52
2023/07/25 01:59:42;;;;;;;5.15;0.20;;;;;;;14.23;100.00;100234.88;5017956;28;20996;-52
2023/07/25 02:02:08;;;;;;;1.52;0.32;;;;;;;14.26;100.00;100237.91;5019822;28;20057;-50
2023/07/25 02:04:33;;;;;;;3.08;1.20;;;;;;;14.29;100.00;100231.31;5024333;28;20502;-49
2023/07/25 02:06:59;;;;;;;2.40;0.30;;;;;;;14.32;100.00;100226.34;5024881;28;20556;-50
2023/07/25 02:09:24;;;;;;;0.90;0.25;;;;;;;14.26;100.00;100234.44;5026846;28;20037;-50
2023/07/25 02:11:49;;;;;;;3.25;1.08;;;;;;;14.14;100.00;100235.16;5022602;28;20029;-55
2023/07/25 02:14:15;;;;;;;2.03;0.47;;;;;;;14.10;100.00;100239.31;5024087;28;20032;-54
2023/07/25 02:16:40;;;;;;;0.98;0.35;;;;;;;14.04;100.00;100231.38;5025659;28;20461;-55
2023/07/25 02:19:06;;;;;;;1.02;0.20;;;;;;;14.00;100.00;100232.84;5025809;28;20029;-53
2023/07/25 02:21:31;;;;;;;1.27;0.52;;;;;;;13.98;100.00;100234.91;5022343;28;20075;-51
2023/07/25 02:23:57;;;;;;;8.68;0.52;;;;;;;13.94;100.00;100232.69;5018723;28;20037;-56
2023/07/25 02:26:22;;;;;;;2.30;0.40;;;;;;;13.90;100.00;100236.81;5017568;28;20060;-52
2023/07/25 02:28:47;;;;;;;4.10;0.28;;;;;;;13.90;100.00;100231.50;5023020;28;20029;-50
2023/07/25 02:31:13;;;;;;;3.05;0.95;;;;;;;13.94;100.00;100232.69;5022810;28;20026;-51
2023/07/25 02:33:39;;;;;;;2.50;0.30;;;;;;;13.89;100.00;100237.06;5023627;28;20029;-54
2023/07/25 02:36:05;;;;;;;2.22;0.38;;;;;;;13.76;100.00;100230.00;5022976;28;20041;-53
2023/07/25 02:38:30;;;;;;;3.92;0.45;;;;;;;13.70;100.00;100226.31;5022921;28;20060;-52
2023/07/25 02:40:56;;;;;;;1.33;0.17;;;;;;;13.60;100.00;100225.19;5023409;28;20453;-54
2023/07/25 02:43:22;;;;;;;2.35;0.85;;;;;;;13.51;100.00;100229.97;5023327;28;20431;-52
2023/07/25 02:45:51;;;;;;;4.13;1.27;;;;;;;13.45;100.00;100230.81;5022052;28;20034;-51
2023/07/25 02:48:17;;;;;;;2.20;0.85;;;;;;;13.39;100.00;100223.69;5022209;28;20036;-51
2023/07/25 02:50:43;;;;;;;0.45;0.45;;;;;;;13.30;100.00;100234.63;5020637;28;20045;-54
2023/07/25 02:53:08;;;;;;;4.38;0.22;;;;;;;13.23;100.00;100228.47;5027075;28;20029;-54
2023/07/25 02:55:33;;;;;;;2.65;0.30;;;;;;;13.26;100.00;100235.22;5018923;28;20550;-54
2023/07/25 02:57:59;;;;;;;2.75;1.30;;;;;;;13.24;100.00;100224.81;5023515;28;20029;-52
2023/07/25 03:00:24;;;;;;;2.53;0.65;;;;;;;13.24;100.00;100223.97;5020896;28;20394;-53
2023/07/25 03:02:49;;;;;;;1.02;0.22;;;;;;;13.14;100.00;100227.13;5013645;28;20038;-53
2023/07/25 03:05:15;;;;;;;1.00;0.43;;;;;;;13.03;100.00;100236.56;5013874;28;20167;-53
2023/07/25 03:07:41;;;;;;;5.05;0.30;;;;;;;13.02;100.00;100234.16;5023460;28;20065;-55
2023/07/25 03:10:07;;;;;;;4.55;0.35;;;;;;;12.99;100.00;100229.25;5016290;28;20388;-50
2023/07/25 03:12:32;;;;;;;5.40;0.52;;;;;;;13.04;100.00;100243.53;5022024;28;20036;-53
2023/07/25 03:14:58;;;;;;;5.68;0.35;;;;;;;13.02;100.00;100234.16;5015340;28;20061;-50
2023/07/25 03:17:23;;;;;;;0.80;0.10;;;;;;;12.96;100.00;100241.13;5018946;28;20030;-51
2023/07/25 03:19:49;;;;;;;2.45;1.02;;;;;;;12.92;100.00;100247.91;5018969;28;20519;-57
2023/07/25 03:22:18;;;;;;;0.20;0.20;;;;;;;12.83;100.00;100252.66;5023519;28;20360;-52
2023/07/25 03:24:43;;;;;;;0.77;0.28;;;;;;;12.80;100.00;100253.09;5012607;28;20533;-53
2023/07/25 03:27:08;;;;;;;0.22;0.10;;;;;;;12.80;100.00;100253.09;5008624;28;20041;-51
2023/07/25 03:29:34;;;;;;;6.03;0.30;;;;;;;12.77;100.00;100253.47;5016499;28;20119;-50
2023/07/25 03:31:59;;;;;;;0.47;0.22;;;;;;;12.79;100.00;100256.75;5023144;28;20032;-54
2023/07/25 03:34:24;;;;;;;2.40;0.50;;;;;;;12.84;100.00;100254.28;5009965;28;20369;-52
2023/07/25 03:36:50;;;;;;;0.45;0.45;;;;;;;12.81;100.00;100254.69;5018936;28;20026;-48
2023/07/25 03:39:15;;;;;;;7.03;0.50;;;;;;;12.77;100.00;100250.81;5015049;28;20052;-54
2023/07/25 03:41:40;;;;;;;1.95;0.45;;;;;;;12.69;100.00;100259.03;5022868;28;20464;-53
2023/07/25 03:44:06;;;;;;;0.30;0.10;;;;;;;12.64;100.00;100259.66;5014726;28;20053;-55
2023/07/25 03:46:31;;;;;;;3.50;0.10;;;;;;;12.55;100.00;100257.47;5021155;28;20134;-53
2023/07/25 03:48:58;;;;;;;2.88;0.40;;;;;;;11.97;100.00;100266.94;5021479;28;20033;-54
2023/07/25 03:51:23;;;;;;;0.40;0.32;;;;;;;12.10;100.00;100273.28;5021391;28;20033;-52
2023/07/25 03:53:48;;;;;;;2.42;0.25;;;;;;;12.28;100.00;100270.00;5005532;28;20379;-53
2023/07/25 03:56:14;;;;;;;4.68;1.13;;;;;;;12.37;100.00;100272.22;5021577;28;20148;-54
2023/07/25 03:58:39;;;;;;;0.17;0.17;;;;;;;12.39;100.00;100267.53;5017642;28;20038;-53
2023/07/25 04:01:04;;;;;;;1.65;0.15;;;;;;;12.44;100.00;100267.72;5019741;28;20054;-51
2023/07/25 04:03:30;;;;;;;3.35;0.30;;;;;;;12.48;100.00;100270.78;5020093;28;20410;-51
2023/07/25 04:05:55;;;;;;;3.30;0.10;;;;;;;12.47;100.00;100260.31;5019812;28;20033;-51
2023/07/25 04:08:20;;;;;;;0.45;0.43;;;;;;;12.44;100.00;100262.41;5019345;28;20033;-48
2023/07/25 04:10:46;;;;;;;0.75;0.40;;;;;;;12.46;100.00;100261.38;5021111;28;20057;-54
2023/07/25 04:13:11;;;;;;;2.17;0.20;;;;;;;12.45;100.00;100263.22;5023267;28;20566;-54
2023/07/25 04:15:36;;;;;;;0.88;0.30;;;;;;;12.40;100.00;100261.16;5022216;28;20104;-51
2023/07/25 04:18:02;;;;;;;0.30;0.28;;;;;;;12.35;100.00;100260.97;5022790;28;20036;-53
2023/07/25 04:20:27;;;;;;;0.10;0.10;;;;;;;12.25;100.00;100260.59;5020715;28;20037;-50
2023/07/25 04:22:52;;;;;;;2.80;0.35;;;;;;;12.19;100.00;100261.44;5021723;28;20025;-52
2023/07/25 04:25:18;;;;;;;0.60;0.28;;;;;;;12.13;100.00;100254.25;5019721;28;20044;-53
2023/07/25 04:27:43;;;;;;;0.52;0.52;;;;;;;12.06;100.00;100258.78;5020949;28;20710;-51
2023/07/25 04:30:09;;;;;;;2.65;0.40;;;;;;;11.86;100.00;100259.59;5020935;28;20475;-50
2023/07/25 04:32:34;;;;;;;0.10;0.10;;;;;;;11.82;100.00;100265.50;5013224;28;20037;-54
2023/07/25 04:34:59;;;;;;;8.23;1.13;;;;;;;11.80;100.00;100265.72;5021981;28;20025;-50
2023/07/25 04:37:25;;;;;;;1.25;0.32;;;;;;;11.66;100.00;100272.03;5020492;28;20470;-53
2023/07/25 04:39:50;;;;;;;0.52;0.38;;;;;;;11.62;100.00;100276.94;5021786;28;20116;-50
2023/07/25 04:42:16;;;;;;;14.25;0.65;;;;;;;11.56;100.00;100277.72;5016287;28;20398;-48
2023/07/25 04:44:41;;;;;;;0.50;0.30;;;;;;;11.62;100.00;100276.13;5023111;28;20040;-50
2023/07/25 04:47:06;;;;;;;0.60;0.13;;;;;;;11.63;100.00;100272.44;5018713;28;20057;-51
2023/07/25 04:49:32;;;;;;;0.68;0.20;;;;;;;11.58;100.00;100281.81;5022133;28;20466;-53
2023/07/25 04:51:57;;;;;;;0.88;0.40;;;;;;;11.65;100.00;100275.72;5017805;28;20040;-52
2023/07/25 04:54:22;;;;;;;9.75;1.33;;;;;;;11.52;100.00;100279.97;5020409;28;20072;-51
2023/07/25 04:56:48;;;;;;;0.00;0.00;;;;;;;11.55;100.00;100282.22;5022052;28;20028;-52
2023/07/25 04:59:13;;;;;;;0.45;0.20;;;;;;;11.51;100.00;100288.13;5020823;28;20116;-54
2023/07/25 05:01:38;;;;;;;3.40;1.27;;;;;;;11.51;100.00;100288.13;5017930;28;20541;-53
2023/07/25 05:04:04;;;;;;;0.25;0.13;;;;;;;11.44;100.00;100288.13;5022957;28;20116;-51
2023/07/25 05:06:29;;;;;;;3.83;0.20;;;;;;;11.63;100.00;100288.38;5014973;28;20026;-48
2023/07/25 05:08:55;;;;;;;0.57;0.10;;;;;;;11.35;100.00;100287.50;5015354;28;20033;-53
2023/07/25 05:11:20;;;;;;;2.10;0.80;;;;;;;11.30;100.00;100297.06;5021496;28;20025;-53
2023/07/25 05:13:45;;;;;;;0.52;0.10;;;;;;;11.70;100.00;100284.69;5020639;28;20107;-53
2023/07/25 05:16:11;;;;;;;0.52;0.30;;;;;;;11.77;100.00;100287.34;5016666;28;20493;-50
2023/07/25 05:18:36;;;;;;;0.75;0.43;;;;;;;11.68;100.00;100292.06;5022350;28;20125;-53
2023/07/25 05:21:01;;;;;;;0.10;0.10;;;;;;;11.86;100.00;100298.59;5019381;28;20032;-52
2023/07/25 05:23:27;;;;;;;0.80;0.30;;;;;;;11.54;100.00;100301.03;5015176;28;20074;-51
2023/07/25 05:25:52;;;;;;;0.10;0.10;;;;;;;12.00;100.00;100308.22;5017760;28;20074;-50
2023/07/25 05:28:18;;;;;;;0.30;0.25;;;;;;;12.04;100.00;100292.72;5020185;28;20037;-51
2023/07/25 05:30:43;;;;;;;2.08;0.20;;;;;;;12.07;100.00;100294.97;5020575;28;20041;-49
2023/07/25 05:33:09;;;;;;;1.17;0.57;;;;;;;12.11;100.00;100296.19;5018249;28;20029;-49
2023/07/25 05:35:34;;;;;;;0.63;0.50;;;;;;;12.04;100.00;100290.88;5016505;28;20030;-51
2023/07/25 05:38:00;;;;;;;1.38;0.40;;;;;;;11.79;100.00;100299.41;5019714;28;20038;-51
2023/07/25 05:40:26;;;;;;;0.77;0.20;;;;;;;12.09;100.00;100293.72;5021811;28;20032;-51
2023/07/25 05:42:51;;;;;;;0.28;0.22;;;;;;;12.16;100.00;100299.06;5020421;28;20029;-55
2023/07/25 05:45:16;;;;;;;0.40;0.40;;;;;;;12.23;100.00;100302.50;5021201;28;20037;-51
2023/07/25 05:47:42;;;;;;;2.97;1.05;;;;;;;12.28;100.00;100300.03;5012280;28;20029;-51
2023/07/25 05:50:08;;;;;;;1.00;0.30;;;;;;;12.32;100.00;100301.28;5021042;28;20148;-52
2023/07/25 05:52:33;;;;;;;1.10;0.30;;;;;;;12.34;100.00;100307.22;5020742;28;20034;-52
2023/07/25 05:54:58;;;;;;;1.48;0.50;;;;;;;12.00;100.00;100326.84;5021116;28;20125;-53
2023/07/25 05:57:24;;;;;;;1.23;0.32;;;;;;;12.01;100.00;100323.19;5018981;28;20052;-53
2023/07/25 05:59:49;;;;;;;1.05;0.57;;;;;;;12.36;100.00;100307.00;5017509;28;20034;-51
2023/07/25 06:02:16;;;;;;;0.70;0.35;;;;;;;12.56;100.00;100313.09;5012854;28;20049;-51
2023/07/25 06:04:42;;;;;;;2.00;0.50;;;;;;;12.66;100.00;100308.16;5016751;28;20045;-51
2023/07/25 06:07:08;;;;;;;1.85;0.45;;;;;;;12.78;100.00;100318.97;5019320;28;20033;-49
2023/07/25 06:09:33;;;;;;;2.55;0.77;;;;;;;12.50;100.00;100329.88;5022079;28;20034;-54
2023/07/25 06:11:59;;;;;;;3.50;0.60;;;;;;;12.99;100.00;100325.06;5021368;28;20034;-51
2023/07/25 06:14:25;;;;;;;0.93;0.77;;;;;;;12.66;100.00;100328.63;5012380;28;20026;-53
2023/07/25 06:16:50;;;;;;;2.63;0.47;;;;;;;13.28;100.00;100329.84;5017985;28;20489;-57
2023/07/25 06:19:15;;;;;;;0.50;0.50;;;;;;;13.56;100.00;100317.22;5018860;28;20055;-54
2023/07/25 06:21:41;;;;;;;1.10;0.77;;;;;;;13.71;100.00;100323.06;5019803;28;20034;-53
2023/07/25 06:24:06;;;;;;;4.78;0.95;;;;;;;13.80;100.00;100320.97;5012592;28;20037;-54
2023/07/25 06:26:32;;;;;;;2.58;1.48;;;;;;;13.88;100.00;100324.16;5019280;28;20407;-54
2023/07/25 06:28:58;;;;;;;1.70;1.33;;;;;;;13.94;100.00;100311.84;5015187;28;20065;-50
2023/07/25 06:31:23;;;;;;;3.55;0.65;;;;;;;13.99;100.00;100313.84;5016267;28;20056;-55
2023/07/25 06:33:48;;;;;;;5.78;0.68;;;;;;;14.07;100.00;100321.56;5015407;28;20025;-53
2023/07/25 06:36:14;;;;;;;4.07;1.40;;;;;;;14.15;100.00;100327.44;5018936;28;20080;-57
2023/07/25 06:38:39;;;;;;;0.73;0.70;;;;;;;14.15;100.00;100329.31;5016592;28;20506;-55
2023/07/25 06:41:04;;;;;;;5.22;1.67;;;;;;;14.17;100.00;100325.38;5022947;28;20083;-49
2023/07/25 06:43:30;;;;;;;3.42;0.50;;;;;;;14.21;100.00;100333.75;5020092;28;20046;-55
2023/07/25 06:45:55;;;;;;;1.55;0.60;;;;;;;14.25;100.00;100318.97;5019136;28;20041;-54
2023/07/25 06:48:20;;;;;;;1.38;0.95;;;;;;;14.34;100.00;100322.97;5022086;28;20041;-57
2023/07/25 06:50:46;;;;;;;5.18;0.63;;;;;;;14.35;100.00;100323.78;5021687;28;20029;-56
2023/07/25 06:53:12;;;;;;;3.33;0.60;;;;;;;14.39;100.00;100325.78;5016118;28;20030;-54
2023/07/25 06:55:38;;;;;;;0.88;0.30;;;;;;;14.50;100.00;100331.44;5024293;28;20034;-56
2023/07/25 06:58:04;;;;;;;3.65;1.15;;;;;;;14.61;100.00;100323.56;5012633;28;20076;-59
2023/07/25 07:00:29;;;;;;;1.83;0.77;;;;;;;14.81;100.00;100322.53;5019366;28;20394;-54
2023/07/25 07:02:54;;;;;;;0.90;0.30;;;;;;;14.97;100.00;100321.94;5022381;28;20105;-57
2023/07/25 07:05:20;;;;;;;3.53;0.68;;;;;;;15.19;100.00;100324.94;5016989;28;20037;-57
2023/07/25 07:07:45;;;;;;;1.48;1.17;;;;;;;15.44;100.00;100324.81;5018076;28;20083;-57
2023/07/25 07:10:10;;;;;;;1.35;0.50;;;;;;;15.67;100.00;100325.94;5025744;28;20068;-51
2023/07/25 07:12:36;;;;;;;0.95;0.70;;;;;;;15.81;100.00;100323.91;5017243;28;20065;-53
2023/07/25 07:15:01;;;;;;;5.18;1.13;;;;;;;15.87;100.00;100321.13;5021718;28;20061;-56
2023/07/25 07:17:26;;;;;;;3.40;0.20;;;;;;;16.01;100.00;100318.25;5020540;28;20044;-57
2023/07/25 07:19:53;;;;;;;1.00;0.20;;;;;;;16.17;100.00;100319.44;5024945;28;20043;-57
2023/07/25 07:22:18;;;;;;;0.40;0.20;;;;;;;16.25;100.00;100303.03;5021666;28;20029;-53
2023/07/25 07:24:44;;;;;;;3.30;0.20;;;;;;;16.41;100.00;100309.53;5021722;28;20087;-58
2023/07/25 07:27:09;;;;;;;1.05;0.10;;;;;;;16.56;100.00;100302.66;5021134;28;20033;-60
2023/07/25 07:29:34;;;;;;;5.28;0.20;;;;;;;16.53;100.00;100287.06;5021441;28;20228;-58
2023/07/25 07:32:02;;;;;;;1.95;0.45;;;;;;;16.56;100.00;100291.97;5023551;28;20039;-61
2023/07/25 07:34:28;;;;;;;0.32;0.32;;;;;;;16.68;100.00;100294.63;5017684;28;20041;-56
2023/07/25 07:36:53;;;;;;;1.30;0.10;;;;;;;16.71;100.00;100291.47;5018852;28;20037;-58
2023/07/25 07:39:18;;;;;;;4.00;0.30;;;;;;;16.79;100.00;100293.81;5022284;28;20033;-61
2023/07/25 07:41:43;;;;;;;2.17;0.45;;;;;;;16.82;100.00;100294.38;5023162;28;20034;-63
2023/07/25 07:44:09;;;;;;;4.57;0.55;;;;;;;16.87;100.00;100283.78;5017529;28;20061;-55
2023/07/25 07:46:35;;;;;;;0.70;0.32;;;;;;;17.03;100.00;100292.94;5023156;28;20033;-59
2023/07/25 07:49:00;;;;;;;1.23;0.17;;;;;;;17.11;100.00;100296.03;5019254;28;20041;-62
2023/07/25 07:51:26;;;;;;;2.25;0.30;;;;;;;17.04;100.00;100292.72;5013647;28;20029;-61
2023/07/25 07:53:51;;;;;;;0.80;0.32;;;;;;;17.14;100.00;100289.38;5022429;28;20041;-59
2023/07/25 07:56:17;;;;;;;0.90;0.10;;;;;;;17.33;100.00;100288.16;5021592;28;20433;-61
2023/07/25 07:58:42;;;;;;;0.77;0.10;;;;;;;17.55;100.00;100295.50;5024482;28;20029;-62
2023/07/25 08:01:21;;;;;;;2.13;0.57;;;;;;;17.65;100.00;100283.06;5019087;28;20120;-63
2023/07/25 08:03:47;;;;;;;2.60;0.77;;;;;;;17.51;100.00;100292.50;5018228;28;20072;-62
2023/07/25 08:06:13;;;;;;;2.28;0.20;;;;;;;17.55;100.00;100290.13;5021406;28;20830;-61
2023/07/25 08:08:40;;;;;;;2.15;0.30;;;;;;;17.73;100.00;100294.47;5024573;28;20033;-61
2023/07/25 08:11:06;;;;;;;1.92;0.30;;;;;;;17.74;100.00;100290.75;5018222;28;20033;-64
2023/07/25 08:13:31;;;;;;;1.95;0.35;;;;;;;17.72;100.00;100284.81;5023963;28;20119;-63
2023/07/25 08:15:56;;;;;;;0.47;0.20;;;;;;;17.89;100.00;100288.34;5008925;28;20322;-62
2023/07/25 08:18:22;;;;;;;1.30;1.02;;;;;;;18.05;100.00;100287.50;5024453;28;20124;-62
2023/07/25 08:20:47;;;;;;;3.28;0.30;;;;;;;18.17;100.00;100291.97;5017106;28;20116;-58
2023/07/25 08:23:13;;;;;;;0.20;0.20;;;;;;;18.40;100.00;100278.34;5022608;28;20041;-60
2023/07/25 08:25:39;;;;;;;2.00;0.28;;;;;;;18.35;100.00;100286.31;5010579;28;20049;-64
2023/07/25 08:28:05;;;;;;;0.50;0.20;;;;;;;18.36;100.00;100285.28;5020142;28;20067;-64
2023/07/25 08:30:30;;;;;;;0.43;0.20;;;;;;;18.39;100.00;100289.34;5019151;28;20080;-64
2023/07/25 08:32:56;;;;;;;0.98;0.30;;;;;;;18.53;100.00;100286.06;5021138;28;20390;-62
2023/07/25 08:35:21;;;;;;;0.60;0.20;;;;;;;18.72;100.00;100283.06;5018269;28;20045;-62
2023/07/25 08:37:46;;;;;;;1.20;0.30;;;;;;;18.52;100.00;100276.38;5021062;28;20038;-64
2023/07/25 08:40:12;;;;;;;0.60;0.13;;;;;;;18.59;100.00;100291.50;5019146;28;20029;-62
2023/07/25 08:42:41;;;;;;;1.23;0.43;;;;;;;18.59;100.00;100283.44;5017586;28;20041;-62
2023/07/25 08:45:08;;;;;;;0.82;0.52;;;;;;;18.62;100.00;100283.75;5012803;28;20037;-64
2023/07/25 08:47:39;;;;;;;2.40;0.32;;;;;;;18.47;100.00;100283.53;5018775;28;20483;-57
2023/07/25 08:50:11;;;;;;;1.10;0.10;;;;;;;18.66;100.00;100287.53;5021561;28;20052;-61
2023/07/25 08:52:40;;;;;;;2.67;0.25;;;;;;;18.78;100.00;100284.78;5012932;28;20852;-57
2023/07/25 08:55:06;;;;;;;0.95;0.30;;;;;;;19.17;100.00;100290.06;5021278;28;20533;-62
2023/07/25 08:57:32;;;;;;;0.47;0.00;;;;;;;19.47;100.00;100280.69;5022583;28;20124;-62
2023/07/25 08:59:58;;;;;;;2.72;0.00;;;;;;;19.43;100.00;100291.13;5021556;28;20956;-57
2023/07/25 09:02:25;;;;;;;1.83;0.45;;;;;;;19.04;100.00;100285.09;5019960;28;20041;-63
2023/07/25 09:04:52;;;;;;;2.05;0.10;;;;;;;18.99;100.00;100293.88;5018439;28;20037;-63
2023/07/25 09:07:17;;;;;;;1.35;0.17;;;;;;;18.87;100.00;100288.66;5014929;28;20049;-63
2023/07/25 09:09:42;;;;;;;1.15;0.30;;;;;;;18.63;100.00;100297.97;5020809;28;20029;-58
2023/07/25 09:12:08;;;;;;;0.10;0.10;;;;;;;18.57;100.00;100291.75;5021956;28;20367;-62
2023/07/25 09:14:36;;;;;;;2.35;0.25;;;;;;;19.14;100.00;100288.69;5019154;28;20144;-63
2023/07/25 09:17:04;;;;;;;1.38;0.80;;;;;;;19.63;100.00;100284.34;5018821;28;20783;-60
2023/07/25 09:19:29;;;;;;;0.28;0.20;;;;;;;20.12;100.00;100279.63;5020483;28;20051;-61
2023/07/25 09:21:57;;;;;;;2.47;0.20;;;;;;;20.46;100.00;100276.59;5020085;28;20033;-62
2023/07/25 09:24:22;;;;;;;0.73;0.00;;;;;;;20.55;100.00;100277.75;5021078;28;20119;-60
2023/07/25 09:26:50;;;;;;;0.65;0.28;;;;;;;20.83;100.00;100283.78;5022070;28;20490;-63
2023/07/25 09:29:17;;;;;;;0.55;0.20;;;;;;;20.67;100.00;100289.09;5021055;28;20026;-61
2023/07/25 09:31:44;;;;;;;1.95;0.13;;;;;;;20.53;100.00;100289.84;5013003;28;20038;-59
2023/07/25 09:34:15;;;;;;;0.50;0.40;;;;;;;20.24;100.00;100293.72;5018070;28;20843;-59
2023/07/25 09:36:43;;;;;;;;;;;;;;;20.15;100.00;100297.13;5023400;28;20457;-62
2023/07/25 09:39:09;;;;;;;2.90;0.95;;;;;;;20.11;100.00;100302.25;5022055;28;20393;-62
2023/07/25 09:41:35;;;;;;;0.43;0.35;;;;;;;20.00;100.00;100297.84;5020119;28;20437;-64
2023/07/25 09:44:05;;;;;;;3.22;0.45;;;;;;;19.92;99.87;100306.38;5022807;28;20041;-62
2023/07/25 09:46:30;;;;;;;1.08;0.65;;;;;;;19.91;100.00;100302.09;5017030;28;20030;-62
2023/07/25 09:48:56;;;;;;;0.47;0.10;;;;;;;19.80;100.00;100302.00;5020982;28;20659;-64
2023/07/25 09:51:21;;;;;;;0.25;0.25;;;;;;;20.17;100.00;100305.78;5016504;28;20051;-63
2023/07/25 09:53:51;;;;;;;0.32;0.32;;;;;;;20.48;100.00;100312.16;5017312;28;20041;-63
2023/07/25 09:56:17;;;;;;;0.30;0.30;;;;;;;20.44;100.00;100311.84;5021193;28;20040;-64
2023/07/25 09:58:42;;;;;;;0.93;0.30;;;;;;;20.64;100.00;100307.69;5021843;28;20033;-58
2023/07/25 10:01:10;;;;;;;0.20;0.10;;;;;;;20.48;100.00;100314.84;5019647;28;20042;-62
2023/07/25 10:03:36;;;;;;;0.50;0.10;;;;;;;20.61;100.00;100311.72;5023239;28;20041;-63
2023/07/25 10:06:04;;;;;;;1.02;0.50;;;;;;;20.75;100.00;100309.34;5014015;28;20033;-62
2023/07/25 10:08:30;;;;;;;0.52;0.43;;;;;;;20.31;100.00;100308.81;5023266;28;20112;-62
2023/07/25 10:10:56;;;;;;;0.55;0.30;;;;;;;20.35;100.00;100302.66;5019068;28;20033;-59
2023/07/25 10:13:23;;;;;;;1.48;0.20;;;;;;;20.61;100.00;100300.94;5020849;28;20616;-64
2023/07/25 10:15:50;;;;;;;1.25;0.20;;;;;;;21.00;100.00;100297.06;5019669;28;20117;-64
2023/07/25 10:18:21;;;;;;;0.40;0.20;;;;;;;20.86;97.14;100302.94;5024620;28;20040;-62
2023/07/25 10:20:48;;;;;;;0.40;0.05;;;;;;;20.91;98.16;100310.25;5031198;28;20052;-62
2023/07/25 10:23:14;;;;;;;1.00;0.10;;;;;;;21.27;100.00;100304.94;5024697;28;20036;-64
2023/07/25 10:25:40;;;;;;;0.43;0.08;;;;;;;21.27;96.35;100303.06;5023316;28;20402;-62
2023/07/25 10:28:06;;;;;;;1.58;0.25;;;;;;;21.04;94.82;100303.53;5024441;28;20030;-62
2023/07/25 10:30:40;;;;;;;0.40;0.08;;;;;;;21.30;91.85;100296.34;5023638;28;20036;-59
2023/07/25 10:33:07;;;;;;;0.47;0.25;;;;;;;21.25;96.03;100294.44;5022816;28;20037;-62
2023/07/25 10:35:49;;;;;;;0.65;0.10;;;;;;;20.97;94.35;100295.69;5023171;28;20084;-61
2023/07/25 10:38:42;;;;;;;0.52;0.22;;;;;;;21.30;93.78;100296.34;5022753;28;20562;-60
2023/07/25 10:41:17;;;;;;;1.65;0.25;;;;;;;21.29;91.25;100294.69;5018319;28;20033;-58
2023/07/25 10:43:48;;;;;;;0.30;0.28;;;;;;;21.85;93.09;100296.69;5020186;28;20129;-60
2023/07/25 10:46:19;;;;;;;1.02;0.50;;;;;;;22.09;92.54;100291.53;5019099;28;20500;-61
2023/07/25 10:48:49;;;;;;;3.10;0.43;;;;;;;21.89;93.45;100287.78;5024538;28;20029;-62
2023/07/25 10:51:16;;;;;;;0.60;0.20;;;;;;;21.58;92.75;100295.03;5019910;28;20108;-60
2023/07/25 10:54:06;;;;;;;3.00;0.43;;;;;;;21.42;92.17;100296.09;5018015;28;20498;-57
2023/07/25 10:56:31;;;;;;;2.17;0.13;;;;;;;21.62;93.70;100298.81;5019017;28;20483;-58
2023/07/25 10:59:08;;;;;;;0.82;0.20;;;;;;;21.13;92.80;100313.53;5019201;28;20072;-61
2023/07/25 11:01:34;;;;;;;2.92;0.50;;;;;;;20.42;98.36;100329.34;5016755;28;20541;-58
2023/07/25 11:04:27;;;;;;;0.50;0.40;;;;;;;19.68;100.00;100339.00;5020908;28;20037;-61
2023/07/25 11:07:02;;;;;;;1.15;0.43;;;;;;;19.34;100.00;100336.47;5016451;28;20073;-60
2023/07/25 11:09:28;;;;;;;0.30;0.20;;;;;;;19.20;100.00;100346.00;5018303;28;20033;-62
2023/07/25 11:11:55;;;;;;;0.65;0.10;;;;;;;18.62;100.00;100347.38;5009979;28;20034;-63
2023/07/25 11:14:20;;;;;;;1.17;0.10;;;;;;;18.53;100.00;100347.81;5022517;28;20037;-64
2023/07/25 11:16:49;;;;;;;0.47;0.17;;;;;;;18.51;100.00;100336.50;5021750;28;20029;-60